createdAt,value
2023-01-22T00:00:28.876Z,28.35
2023-01-22T00:02:30.486Z,17.52
2023-01-22T00:04:32.629Z,20.75
2023-01-22T00:06:34.135Z,24.48
2023-01-22T00:08:36.074Z,18.90
2023-01-22T00:10:37.577Z,15.68
2023-01-22T00:12:39.138Z,21.73
2023-01-22T00:14:40.793Z,16.60
2023-01-22T00:16:42.698Z,18.70
2023-01-22T00:18:44.346Z,21.17
2023-01-22T00:20:53.650Z,21.13
2023-01-22T00:22:55.176Z,27.90
2023-01-22T00:24:56.680Z,28.08
2023-01-22T00:27:00.966Z,34.70
2023-01-22T00:29:03.431Z,51.63
2023-01-22T00:31:06.327Z,31.98
2023-01-22T00:33:08.326Z,27.75
2023-01-22T00:35:09.807Z,22.83
2023-01-22T00:37:11.266Z,23.02
2023-01-22T00:39:12.817Z,20.08
2023-01-22T00:41:14.872Z,16.73
2023-01-22T00:43:16.450Z,19.88
2023-01-22T00:45:17.960Z,17.00
2023-01-22T00:47:19.513Z,16.73
2023-01-22T00:49:21.022Z,17.77
2023-01-22T00:51:22.651Z,18.48
2023-01-22T00:53:24.262Z,20.98
2023-01-22T00:55:25.769Z,20.90
2023-01-22T00:57:27.295Z,18.65
2023-01-22T00:59:28.789Z,21.33
2023-01-22T01:01:30.308Z,19.13
2023-01-22T01:03:32.150Z,14.70
2023-01-22T01:05:33.904Z,13.20
2023-01-22T01:07:35.530Z,12.73
2023-01-22T01:09:37.213Z,10.63
2023-01-22T01:11:38.766Z,10.43
2023-01-22T01:13:43.022Z,11.82
2023-01-22T01:15:44.698Z,10.98
2023-01-22T01:17:46.404Z,12.00
2023-01-22T01:19:47.955Z,12.00
2023-01-22T01:21:49.478Z,13.43
2023-01-22T01:23:50.971Z,13.32
2023-01-22T01:25:52.477Z,13.25
2023-01-22T01:27:54.015Z,13.68
2023-01-22T01:29:55.603Z,14.63
2023-01-22T01:31:57.939Z,12.95
2023-01-22T01:33:59.796Z,14.75
2023-01-22T01:36:02.111Z,17.10
2023-01-22T01:38:03.783Z,20.38
2023-01-22T01:40:05.952Z,22.83
2023-01-22T01:42:07.459Z,21.90
2023-01-22T01:44:13.723Z,19.55
2023-01-22T01:46:24.736Z,26.15
2023-01-22T01:48:36.125Z,25.52
2023-01-22T01:50:40.561Z,20.50
2023-01-22T01:52:42.059Z,19.63
2023-01-22T01:54:49.389Z,14.63
2023-01-22T01:56:54.987Z,12.52
2023-01-22T01:59:02.666Z,10.50
2023-01-22T02:01:10.461Z,12.52
2023-01-22T02:03:11.982Z,15.52
2023-01-22T02:05:13.550Z,12.57
2023-01-22T02:07:15.245Z,14.07
2023-01-22T02:09:16.746Z,15.57
2023-01-22T02:11:20.006Z,13.40
2023-01-22T02:13:27.419Z,12.75
2023-01-22T02:15:29.280Z,14.40
2023-01-22T02:17:31.043Z,14.13
2023-01-22T02:19:32.616Z,11.52
2023-01-22T02:21:35.850Z,22.38
2023-01-22T02:23:37.360Z,20.73
2023-01-22T02:25:38.959Z,15.68
2023-01-22T02:27:40.457Z,11.55
2023-01-22T02:29:42.076Z,11.63
2023-01-22T02:31:43.738Z,12.45
2023-01-22T02:33:45.379Z,17.05
2023-01-22T02:35:46.906Z,17.85
2023-01-22T02:37:49.170Z,20.63
2023-01-22T02:39:50.737Z,21.88
2023-01-22T02:41:52.616Z,15.55
2023-01-22T02:43:54.276Z,16.27
2023-01-22T02:45:55.852Z,14.68
2023-01-22T02:47:57.343Z,11.98
2023-01-22T02:49:58.841Z,9.15
2023-01-22T02:52:00.365Z,15.65
2023-01-22T02:54:02.041Z,14.27
2023-01-22T02:56:08.268Z,10.93
2023-01-22T02:58:09.752Z,9.98
2023-01-22T03:00:11.925Z,10.00
2023-01-22T03:02:13.643Z,9.05
2023-01-22T03:04:15.143Z,9.00
2023-01-22T03:06:21.422Z,7.65
2023-01-22T03:08:26.672Z,11.38
2023-01-22T03:10:28.205Z,10.45
2023-01-22T03:12:29.738Z,9.10
2023-01-22T03:14:50.166Z,9.18
2023-01-22T03:17:10.569Z,10.90
2023-01-22T03:19:30.555Z,9.02
2023-01-22T03:21:32.118Z,11.80
2023-01-22T03:23:33.719Z,12.57
2023-01-22T03:25:35.325Z,8.30
2023-01-22T03:27:36.935Z,13.70
2023-01-22T03:29:38.653Z,8.90
2023-01-22T03:31:40.325Z,9.98
2023-01-22T03:33:43.159Z,9.13
2023-01-22T03:35:44.775Z,9.52
2023-01-22T03:37:46.301Z,8.68
2023-01-22T03:39:48.194Z,8.45
2023-01-22T03:41:49.712Z,10.25
2023-01-22T03:43:51.249Z,9.95
2023-01-22T03:45:52.805Z,9.70
2023-01-22T03:47:54.783Z,10.82
2023-01-22T03:49:56.292Z,11.40
2023-01-22T03:51:57.838Z,10.63
2023-01-22T03:53:59.761Z,11.13
2023-01-22T03:56:04.069Z,11.60
2023-01-22T03:58:05.650Z,11.05
2023-01-22T04:00:07.955Z,10.02
2023-01-22T04:02:09.510Z,9.85
2023-01-22T04:04:11.080Z,10.18
2023-01-22T04:06:13.326Z,11.02
2023-01-22T04:08:14.843Z,11.50
2023-01-22T04:10:17.809Z,11.35
2023-01-22T04:12:19.501Z,13.07
2023-01-22T04:14:21.021Z,13.85
2023-01-22T04:16:22.678Z,12.50
2023-01-22T04:18:24.264Z,13.23
2023-01-22T04:20:25.854Z,12.60
2023-01-22T04:22:27.345Z,12.32
2023-01-22T04:24:28.826Z,12.85
2023-01-22T04:26:30.320Z,12.40
2023-01-22T04:28:31.985Z,11.75
2023-01-22T04:30:33.656Z,13.82
2023-01-22T04:32:35.186Z,13.35
2023-01-22T04:34:36.689Z,13.80
2023-01-22T04:36:38.203Z,14.30
2023-01-22T04:38:40.033Z,16.20
2023-01-22T04:40:41.539Z,17.30
2023-01-22T04:42:43.071Z,16.48
2023-01-22T04:44:44.581Z,23.27
2023-01-22T04:46:46.138Z,18.10
2023-01-22T04:48:47.636Z,16.05
2023-01-22T04:50:49.165Z,15.38
2023-01-22T04:52:51.917Z,22.60
2023-01-22T04:54:53.943Z,20.02
2023-01-22T04:56:55.504Z,22.48
2023-01-22T04:58:57.012Z,22.25
2023-01-22T05:00:58.800Z,14.43
2023-01-22T05:03:02.944Z,11.50
2023-01-22T05:05:08.731Z,13.77
2023-01-22T05:07:10.203Z,17.55
2023-01-22T05:09:11.690Z,14.60
2023-01-22T05:11:13.198Z,21.33
2023-01-22T05:13:14.667Z,12.85
2023-01-22T05:15:24.157Z,11.70
2023-01-22T05:17:26.461Z,22.50
2023-01-22T05:19:28.132Z,14.25
2023-01-22T05:21:29.639Z,23.60
2023-01-22T05:23:31.165Z,10.93
2023-01-22T05:25:32.680Z,9.52
2023-01-22T05:27:34.197Z,7.78
2023-01-22T05:29:35.721Z,11.75
2023-01-22T05:31:37.277Z,13.05
2023-01-22T05:33:42.720Z,16.38
2023-01-22T05:35:44.245Z,24.23
2023-01-22T05:37:45.740Z,21.73
2023-01-22T05:39:47.281Z,24.10
2023-01-22T05:41:48.854Z,26.20
2023-01-22T05:43:50.393Z,22.35
2023-01-22T05:45:52.020Z,21.17
2023-01-22T05:47:54.315Z,20.50
2023-01-22T05:49:55.824Z,23.73
2023-01-22T05:51:57.331Z,21.85
2023-01-22T05:53:58.900Z,22.90
2023-01-22T05:56:04.720Z,22.58
2023-01-22T05:58:06.532Z,18.27
2023-01-22T06:00:08.841Z,24.65
2023-01-22T06:02:10.412Z,43.90
2023-01-22T06:04:11.958Z,30.85
2023-01-22T06:06:14.997Z,52.85
2023-01-22T06:08:16.576Z,31.75
2023-01-22T06:10:18.467Z,44.92
2023-01-22T06:12:20.141Z,48.70
2023-01-22T06:14:21.647Z,80.50
2023-01-22T06:16:23.270Z,57.60
2023-01-22T06:18:25.604Z,44.60
2023-01-22T06:20:27.159Z,30.13
2023-01-22T06:22:28.660Z,36.42
2023-01-22T06:24:30.187Z,28.13
2023-01-22T06:26:31.761Z,25.70
2023-01-22T06:28:33.331Z,30.15
2023-01-22T06:30:36.002Z,38.03
2023-01-22T06:32:37.618Z,35.22
2023-01-22T06:34:39.644Z,27.48
2023-01-22T06:36:43.524Z,30.23
2023-01-22T06:38:45.236Z,27.20
2023-01-22T06:40:53.708Z,24.05
2023-01-22T06:42:55.218Z,28.10
2023-01-22T06:44:56.718Z,25.75
2023-01-22T06:46:58.199Z,28.17
2023-01-22T06:49:01.758Z,35.30
2023-01-22T06:51:03.430Z,31.52
2023-01-22T06:53:05.059Z,32.00
2023-01-22T06:55:06.855Z,35.75
2023-01-22T06:57:08.349Z,33.60
2023-01-22T06:59:09.878Z,35.58
2023-01-22T07:01:11.477Z,34.40
2023-01-22T07:03:13.449Z,25.27
2023-01-22T07:05:15.654Z,27.85
2023-01-22T07:07:17.215Z,61.00
2023-01-22T07:09:18.708Z,44.80
2023-01-22T07:11:20.221Z,58.03
2023-01-22T07:13:21.989Z,29.60
2023-01-22T07:15:23.499Z,35.38
2023-01-22T07:17:24.980Z,30.50
2023-01-22T07:19:26.537Z,23.33
2023-01-22T07:21:28.016Z,33.55
2023-01-22T07:23:30.220Z,27.67
2023-01-22T07:25:31.757Z,15.70
2023-01-22T07:27:34.990Z,28.10
2023-01-22T07:29:36.566Z,22.67
2023-01-22T07:31:38.138Z,22.27
2023-01-22T07:33:39.727Z,22.35
2023-01-22T07:35:42.221Z,22.33
2023-01-22T07:37:43.772Z,25.20
2023-01-22T07:39:45.417Z,32.50
2023-01-22T07:41:46.905Z,39.15
2023-01-22T07:43:49.430Z,41.42
2023-01-22T07:45:50.967Z,26.73
2023-01-22T07:47:57.352Z,31.30
2023-01-22T07:49:58.852Z,22.65
2023-01-22T07:52:03.385Z,32.83
2023-01-22T07:54:05.144Z,30.75
2023-01-22T07:56:06.965Z,46.55
2023-01-22T07:58:08.773Z,48.60
2023-01-22T08:00:11.583Z,29.38
2023-01-22T08:02:14.297Z,23.98
2023-01-22T08:04:15.837Z,25.23
2023-01-22T08:06:20.784Z,37.28
2023-01-22T08:08:22.284Z,29.67
2023-01-22T08:10:23.810Z,16.58
2023-01-22T08:12:25.464Z,24.65
2023-01-22T08:14:27.064Z,37.80
2023-01-22T08:16:29.036Z,19.58
2023-01-22T08:18:30.627Z,18.58
2023-01-22T08:20:32.143Z,22.65
2023-01-22T08:22:33.739Z,19.70
2023-01-22T08:24:35.391Z,14.82
2023-01-22T08:26:37.160Z,19.13
2023-01-22T08:28:38.979Z,25.17
2023-01-22T08:30:46.585Z,21.42
2023-01-22T08:32:50.357Z,202.65
2023-01-22T08:34:54.341Z,31.83
2023-01-22T08:36:55.928Z,34.58
2023-01-22T08:38:57.489Z,36.58
2023-01-22T08:40:59.077Z,18.38
2023-01-22T08:43:00.643Z,23.50
2023-01-22T08:45:02.190Z,33.47
2023-01-22T08:47:03.825Z,66.13
2023-01-22T08:49:05.359Z,59.67
2023-01-22T08:51:06.904Z,43.08
2023-01-22T08:53:08.558Z,38.60
2023-01-22T08:55:10.166Z,30.58
2023-01-22T08:57:11.709Z,17.13
2023-01-22T08:59:13.205Z,23.23
2023-01-22T09:01:16.981Z,26.65
2023-01-22T09:03:18.505Z,25.40
2023-01-22T09:05:19.978Z,21.42
2023-01-22T09:07:21.474Z,22.40
2023-01-22T09:09:23.320Z,20.83
2023-01-22T09:11:27.441Z,18.65
2023-01-22T09:13:28.938Z,21.52
2023-01-22T09:15:30.432Z,24.58
2023-01-22T09:17:32.274Z,24.90
2023-01-22T09:19:33.757Z,33.08
2023-01-22T09:21:37.362Z,36.20
2023-01-22T09:23:38.988Z,22.27
2023-01-22T09:25:40.609Z,15.23
2023-01-22T09:27:42.349Z,16.10
2023-01-22T09:29:45.058Z,17.95
2023-01-22T09:31:46.614Z,21.40
2023-01-22T09:33:48.158Z,17.83
2023-01-22T09:35:49.771Z,23.85
2023-01-22T09:37:51.272Z,15.60
2023-01-22T09:39:52.930Z,18.70
2023-01-22T09:41:57.813Z,28.42
2023-01-22T09:44:19.500Z,28.17
2023-01-22T09:46:36.665Z,51.67
2023-01-22T09:48:46.049Z,17.85
2023-01-22T09:50:48.632Z,29.20
2023-01-22T09:52:52.341Z,33.60
2023-01-22T09:54:53.956Z,79.30
2023-01-22T09:57:01.700Z,64.72
2023-01-22T09:59:06.076Z,25.50
2023-01-22T10:01:07.660Z,27.35
2023-01-22T10:03:24.053Z,30.08
2023-01-22T10:05:41.119Z,28.98
2023-01-22T10:07:51.084Z,25.38
2023-01-22T10:09:56.384Z,15.95
2023-01-22T10:11:59.721Z,23.92
2023-01-22T10:14:03.104Z,30.92
2023-01-22T10:16:05.611Z,23.23
2023-01-22T10:18:20.850Z,53.20
2023-01-22T10:20:24.728Z,40.45
2023-01-22T10:22:27.487Z,18.92
2023-01-22T10:24:30.260Z,19.00
2023-01-22T10:26:40.334Z,29.10
2023-01-22T10:28:47.634Z,28.17
2023-01-22T10:30:50.484Z,13.30
2023-01-22T10:33:06.517Z,16.05
2023-01-22T10:35:11.023Z,36.03
2023-01-22T10:37:18.218Z,18.33
2023-01-22T10:39:20.900Z,20.27
2023-01-22T10:41:22.400Z,23.60
2023-01-22T10:43:39.171Z,25.20
2023-01-22T10:45:52.726Z,60.90
2023-01-22T10:48:23.726Z,40.08
2023-01-22T10:50:25.273Z,31.48
2023-01-22T10:52:41.638Z,34.08
2023-01-22T10:54:47.020Z,30.65
2023-01-22T10:56:50.264Z,15.05
2023-01-22T10:58:52.243Z,20.20
2023-01-22T11:01:06.713Z,21.38
2023-01-22T11:03:23.435Z,28.73
2023-01-22T11:05:27.453Z,22.08
2023-01-22T11:07:33.376Z,13.30
2023-01-22T11:09:44.802Z,37.63
2023-01-22T11:11:56.534Z,27.52
2023-01-22T11:14:02.553Z,27.15
2023-01-22T11:16:16.429Z,15.57
2023-01-22T11:18:42.542Z,55.05
2023-01-22T11:20:54.110Z,39.28
2023-01-22T11:23:27.155Z,31.15
2023-01-22T11:25:38.880Z,18.20
2023-01-22T11:27:59.281Z,12.98
2023-01-22T11:30:21.340Z,30.30
2023-01-22T11:32:35.304Z,20.65
2023-01-22T11:34:59.897Z,22.25
2023-01-22T11:37:15.756Z,24.83
2023-01-22T11:39:50.713Z,19.42
2023-01-22T11:42:16.599Z,28.85
2023-01-22T11:44:56.578Z,24.90
2023-01-22T11:47:46.226Z,37.30
2023-01-22T11:50:12.394Z,34.63
2023-01-22T11:52:35.480Z,25.40
2023-01-22T11:54:45.839Z,32.08
2023-01-22T11:56:49.951Z,32.08
2023-01-22T11:59:06.979Z,20.83
2023-01-22T12:01:14.697Z,25.00
2023-01-22T12:03:30.431Z,25.85
2023-01-22T12:05:41.055Z,26.80
2023-01-22T12:07:58.666Z,23.83
2023-01-22T12:10:06.315Z,22.13
2023-01-22T12:12:26.575Z,21.90
2023-01-22T12:14:59.958Z,22.48
2023-01-22T12:17:20.094Z,23.50
2023-01-22T12:19:41.732Z,23.10
2023-01-22T12:21:52.132Z,21.30
2023-01-22T12:24:09.016Z,24.92
2023-01-22T12:26:25.356Z,33.72
2023-01-22T12:28:32.405Z,27.80
2023-01-22T12:30:37.110Z,24.02
2023-01-22T12:32:42.140Z,21.45
2023-01-22T12:34:52.951Z,33.15
2023-01-22T12:36:55.769Z,29.58
2023-01-22T12:39:00.560Z,27.20
2023-01-22T12:41:21.124Z,42.63
2023-01-22T12:44:10.672Z,55.97
2023-01-22T12:48:32.615Z,25.60
2023-01-22T12:50:34.131Z,21.63
2023-01-22T12:52:38.151Z,20.90
2023-01-22T12:54:39.721Z,29.77
2023-01-22T12:56:41.308Z,28.45
2023-01-22T12:58:43.303Z,17.77
2023-01-22T13:00:45.016Z,32.72
2023-01-22T13:02:46.578Z,26.45
2023-01-22T13:04:48.447Z,23.88
2023-01-22T13:06:49.916Z,26.10
2023-01-22T13:08:51.480Z,23.70
2023-01-22T13:11:00.185Z,18.10
2023-01-22T13:13:27.809Z,24.30
2023-01-22T13:15:34.066Z,18.73
2023-01-22T13:17:36.637Z,25.90
2023-01-22T13:19:44.869Z,21.17
2023-01-22T13:21:47.745Z,24.70
2023-01-22T13:23:49.873Z,23.85
2023-01-22T13:25:56.367Z,31.38
2023-01-22T13:28:00.157Z,24.42
2023-01-22T13:30:14.319Z,34.25
2023-01-22T13:32:21.421Z,31.42
2023-01-22T13:34:23.536Z,27.90
2023-01-22T13:36:26.148Z,29.85
2023-01-22T13:38:32.759Z,38.50
2023-01-22T13:40:46.428Z,37.00
2023-01-22T13:42:53.822Z,51.88
2023-01-22T13:44:55.985Z,34.95
2023-01-22T13:46:57.702Z,44.15
2023-01-22T13:49:02.113Z,35.20
2023-01-22T13:51:06.913Z,54.45
2023-01-22T13:53:16.791Z,38.58
2023-01-22T13:55:22.200Z,53.85
2023-01-22T13:57:23.792Z,57.95
2023-01-22T13:59:36.635Z,49.53
2023-01-22T14:01:38.387Z,32.53
2023-01-22T14:03:42.539Z,37.13
2023-01-22T14:05:44.116Z,37.95
2023-01-22T14:07:45.854Z,36.15
2023-01-22T14:09:47.361Z,38.08
2023-01-22T14:11:50.125Z,42.38
2023-01-22T14:13:53.320Z,33.55
2023-01-22T14:16:06.948Z,32.03
2023-01-22T14:18:16.805Z,44.10
2023-01-22T14:20:18.907Z,37.00
2023-01-22T14:22:22.140Z,30.85
2023-01-22T14:24:23.918Z,32.58
2023-01-22T14:26:25.475Z,31.60
2023-01-22T14:28:30.013Z,34.58
2023-01-22T14:30:31.691Z,24.83
2023-01-22T14:32:33.210Z,30.20
2023-01-22T14:34:34.767Z,46.75
2023-01-22T14:36:36.372Z,59.92
2023-01-22T14:38:37.943Z,44.10
2023-01-22T14:40:40.693Z,37.50
2023-01-22T14:42:42.427Z,42.33
2023-01-22T14:44:43.941Z,49.35
2023-01-22T14:46:45.443Z,48.50
2023-01-22T14:48:47.263Z,49.15
2023-01-22T14:50:50.091Z,35.92
2023-01-22T14:52:51.757Z,53.83
2023-01-22T14:54:55.184Z,51.53
2023-01-22T14:56:58.314Z,59.65
2023-01-22T14:58:59.885Z,52.42
2023-01-22T15:01:01.422Z,74.82
2023-01-22T15:03:03.136Z,59.58
2023-01-22T15:05:04.906Z,49.60
2023-01-22T15:07:06.540Z,122.75
2023-01-22T15:09:08.125Z,31.90
2023-01-22T15:11:09.663Z,51.35
2023-01-22T15:13:11.137Z,68.07
2023-01-22T15:15:12.770Z,39.35
2023-01-22T15:17:14.415Z,52.53
2023-01-22T15:19:18.341Z,74.18
2023-01-22T15:21:20.149Z,68.90
2023-01-22T15:23:21.650Z,131.20
2023-01-22T15:25:23.279Z,45.38
2023-01-22T15:27:25.017Z,67.70
2023-01-22T15:29:26.591Z,41.40
2023-01-22T15:31:28.490Z,50.58
2023-01-22T15:33:30.050Z,50.00
2023-01-22T15:35:31.574Z,48.40
2023-01-22T15:37:33.094Z,57.67
2023-01-22T15:39:34.905Z,42.15
2023-01-22T15:41:37.249Z,36.92
2023-01-22T15:43:38.738Z,43.60
2023-01-22T15:45:40.444Z,51.35
2023-01-22T15:47:42.042Z,57.08
2023-01-22T15:49:43.703Z,56.63
2023-01-22T15:51:45.452Z,46.97
2023-01-22T15:53:51.783Z,43.33
2023-01-22T15:55:53.270Z,36.88
2023-01-22T15:57:54.863Z,44.28
2023-01-22T15:59:56.539Z,52.53
2023-01-22T16:01:58.079Z,68.95
2023-01-22T16:04:01.090Z,47.60
2023-01-22T16:06:08.704Z,52.17
2023-01-22T16:08:10.292Z,42.35
2023-01-22T16:10:11.902Z,41.15
2023-01-22T16:12:13.509Z,54.22
2023-01-22T16:14:15.067Z,45.78
2023-01-22T16:16:30.332Z,50.40
2023-01-22T16:18:33.424Z,42.00
2023-01-22T16:20:34.965Z,50.38
2023-01-22T16:22:36.454Z,51.75
2023-01-22T16:24:38.514Z,55.97
2023-01-22T16:26:40.077Z,61.50
2023-01-22T16:28:42.612Z,65.85
2023-01-22T16:30:44.149Z,76.45
2023-01-22T16:32:46.365Z,60.97
2023-01-22T16:34:48.084Z,60.03
2023-01-22T16:36:49.648Z,74.55
2023-01-22T16:38:51.985Z,88.38
2023-01-22T16:40:53.734Z,65.05
2023-01-22T16:42:59.137Z,99.43
2023-01-22T16:45:00.754Z,78.18
2023-01-22T16:47:02.274Z,64.90
2023-01-22T16:49:06.879Z,87.53
2023-01-22T16:51:16.628Z,81.32
2023-01-22T16:53:18.260Z,72.78
2023-01-22T16:55:20.121Z,51.65
2023-01-22T16:57:21.872Z,60.67
2023-01-22T16:59:24.288Z,44.25
2023-01-22T17:01:26.622Z,46.10
2023-01-22T17:03:29.720Z,50.42
2023-01-22T17:05:31.386Z,56.40
2023-01-22T17:07:34.382Z,45.72
2023-01-22T17:09:36.362Z,72.75
2023-01-22T17:11:38.008Z,74.97
2023-01-22T17:13:39.666Z,79.20
2023-01-22T17:15:42.310Z,93.97
2023-01-22T17:17:44.072Z,73.35
2023-01-22T17:19:46.021Z,77.97
2023-01-22T17:21:51.930Z,53.75
2023-01-22T17:23:53.473Z,73.80
2023-01-22T17:25:54.999Z,77.70
2023-01-22T17:27:56.507Z,51.30
2023-01-22T17:29:58.034Z,46.38
2023-01-22T17:31:59.742Z,57.83
2023-01-22T17:34:02.969Z,42.08
2023-01-22T17:36:05.796Z,33.70
2023-01-22T17:38:08.096Z,59.67
2023-01-22T17:40:10.442Z,37.63
2023-01-22T17:42:12.431Z,95.93
2023-01-22T17:44:14.009Z,97.70
2023-01-22T17:46:21.189Z,96.35
2023-01-22T17:48:22.727Z,75.80
2023-01-22T17:50:24.191Z,70.30
2023-01-22T17:52:25.887Z,78.85
2023-01-22T17:54:27.563Z,73.45
2023-01-22T17:56:35.128Z,62.67
2023-01-22T17:58:37.343Z,71.30
2023-01-22T18:00:39.131Z,73.05
2023-01-22T18:02:40.915Z,59.13
2023-01-22T18:04:42.730Z,61.53
2023-01-22T18:06:44.627Z,56.75
2023-01-22T18:08:46.286Z,54.35
2023-01-22T18:10:47.996Z,56.58
2023-01-22T18:12:49.705Z,53.75
2023-01-22T18:14:51.411Z,59.03
2023-01-22T18:16:53.106Z,62.55
2023-01-22T18:18:57.102Z,67.30
2023-01-22T18:20:58.718Z,57.67
2023-01-22T18:23:00.444Z,50.85
2023-01-22T18:25:02.013Z,39.40
2023-01-22T18:27:03.712Z,52.58
2023-01-22T18:29:06.445Z,68.63
2023-01-22T18:31:15.953Z,79.97
2023-01-22T18:35:21.970Z,91.40
2023-01-22T18:37:23.648Z,52.63
2023-01-22T18:39:26.019Z,38.10
2023-01-22T18:41:28.290Z,48.20
2023-01-22T18:43:29.771Z,74.60
2023-01-22T18:45:34.814Z,49.00
2023-01-22T18:47:37.171Z,55.78
2023-01-22T18:49:38.695Z,47.53
2023-01-22T18:51:42.126Z,48.38
2023-01-22T18:53:43.718Z,62.75
2023-01-22T18:55:45.562Z,66.32
2023-01-22T18:58:17.288Z,104.35
2023-01-22T19:00:20.265Z,68.10
2023-01-22T19:02:22.173Z,97.03
2023-01-22T19:04:23.726Z,106.35
2023-01-22T19:06:29.622Z,82.10
2023-01-22T19:08:31.667Z,61.20
2023-01-22T19:10:33.255Z,69.03
2023-01-22T19:12:34.829Z,71.00
2023-01-22T19:14:36.409Z,82.30
2023-01-22T19:16:38.406Z,65.90
2023-01-22T19:18:46.689Z,79.57
2023-01-22T19:20:48.346Z,66.43
2023-01-22T19:22:49.838Z,60.70
2023-01-22T19:24:51.366Z,60.92
2023-01-22T19:26:54.913Z,72.93
2023-01-22T19:28:59.121Z,60.38
2023-01-22T19:31:00.981Z,73.03
2023-01-22T19:33:02.627Z,52.50
2023-01-22T19:35:06.279Z,51.47
2023-01-22T19:37:07.927Z,47.72
2023-01-22T19:39:12.534Z,89.65
2023-01-22T19:41:14.782Z,66.50
2023-01-22T19:43:16.371Z,106.78
2023-01-22T19:45:18.304Z,76.25
2023-01-22T19:47:20.186Z,79.88
2023-01-22T19:49:21.841Z,86.22
2023-01-22T19:51:24.861Z,58.78
2023-01-22T19:53:27.156Z,43.80
2023-01-22T19:55:29.758Z,52.65
2023-01-22T19:57:31.957Z,49.45
2023-01-22T19:59:33.426Z,55.97
2023-01-22T20:01:37.021Z,73.30
2023-01-22T20:03:38.725Z,80.85
2023-01-22T20:05:42.417Z,81.88
2023-01-22T20:07:44.854Z,92.10
2023-01-22T20:09:46.415Z,121.22
2023-01-22T20:11:55.480Z,150.85
2023-01-22T20:13:58.134Z,108.47
2023-01-22T20:16:01.201Z,113.25
2023-01-22T20:18:02.765Z,58.33
2023-01-22T20:20:05.873Z,136.35
2023-01-22T20:22:10.861Z,60.40
2023-01-22T20:24:12.566Z,88.03
2023-01-22T20:26:16.266Z,106.05
2023-01-22T20:28:18.729Z,69.90
2023-01-22T20:30:20.572Z,106.45
2023-01-22T20:32:22.764Z,54.10
2023-01-22T20:34:24.600Z,71.00
2023-01-22T20:36:29.114Z,82.05
2023-01-22T20:38:31.179Z,119.15
2023-01-22T20:40:34.727Z,112.70
2023-01-22T20:42:36.392Z,90.38
2023-01-22T20:44:37.941Z,115.20
2023-01-22T20:46:44.818Z,77.15
2023-01-22T20:48:47.553Z,77.97
2023-01-22T20:50:49.320Z,204.60
2023-01-22T20:52:53.516Z,110.85
2023-01-22T20:55:01.724Z,97.53
2023-01-22T20:57:03.772Z,87.97
2023-01-22T20:59:08.154Z,66.88
2023-01-22T21:01:16.494Z,85.60
2023-01-22T21:03:18.206Z,57.42
2023-01-22T21:05:19.946Z,93.65
2023-01-22T21:07:21.787Z,105.70
2023-01-22T21:09:23.416Z,88.55
2023-01-22T21:11:27.174Z,93.75
2023-01-22T21:13:29.085Z,66.32
2023-01-22T21:15:33.553Z,75.93
2023-01-22T21:17:35.190Z,86.93
2023-01-22T21:19:36.808Z,73.47
2023-01-22T21:21:38.472Z,100.57
2023-01-22T21:23:40.764Z,95.85
2023-01-22T21:25:42.526Z,89.45
2023-01-22T21:27:44.145Z,74.05
2023-01-22T21:29:45.882Z,74.65
2023-01-22T21:31:50.187Z,78.97
2023-01-22T21:34:02.447Z,90.45
2023-01-22T21:36:06.038Z,78.95
2023-01-22T21:38:07.588Z,127.32
2023-01-22T21:40:12.427Z,119.28
2023-01-22T21:42:33.361Z,85.82
2023-01-22T21:44:53.125Z,89.75
2023-01-22T21:46:54.671Z,122.97
2023-01-22T21:48:58.767Z,63.45
2023-01-22T21:51:02.658Z,86.00
2023-01-22T21:53:04.222Z,103.25
2023-01-22T21:55:06.867Z,81.93
2023-01-22T21:57:12.536Z,102.78
2023-01-22T21:59:14.338Z,110.75
2023-01-22T22:01:19.192Z,85.05
2023-01-22T22:03:20.818Z,93.25
2023-01-22T22:05:22.318Z,80.65
2023-01-22T22:07:23.866Z,59.95
2023-01-22T22:09:28.073Z,83.28
2023-01-22T22:11:29.627Z,45.85
2023-01-22T22:13:35.037Z,53.30
2023-01-22T22:15:36.610Z,93.85
2023-01-22T22:17:38.282Z,79.15
2023-01-22T22:19:39.780Z,73.95
2023-01-22T22:21:41.640Z,107.43
2023-01-22T22:23:43.320Z,98.00
2023-01-22T22:25:48.886Z,84.93
2023-01-22T22:27:50.438Z,71.60
2023-01-22T22:29:53.453Z,67.28
2023-01-22T22:31:55.539Z,71.60
2023-01-22T22:33:57.725Z,69.85
2023-01-22T22:36:00.812Z,55.25
2023-01-22T22:38:02.348Z,70.47
2023-01-22T22:40:04.902Z,100.47
2023-01-22T22:42:06.424Z,76.55
2023-01-22T22:44:10.194Z,64.60
2023-01-22T22:46:18.429Z,123.97
2023-01-22T22:48:21.215Z,61.25
2023-01-22T22:50:22.771Z,54.38
2023-01-22T22:52:24.329Z,61.35
2023-01-22T22:54:25.959Z,173.60
2023-01-22T22:56:28.570Z,70.30
2023-01-22T22:58:30.086Z,71.20
2023-01-22T23:00:31.612Z,103.53
2023-01-22T23:02:33.139Z,76.63
2023-01-22T23:04:35.328Z,69.18
2023-01-22T23:06:37.173Z,67.72
2023-01-22T23:08:40.381Z,71.43
2023-01-22T23:10:41.952Z,44.88
2023-01-22T23:12:43.457Z,46.25
2023-01-22T23:14:44.953Z,53.05
2023-01-22T23:16:46.537Z,50.67
2023-01-22T23:18:50.749Z,48.10
2023-01-22T23:20:52.243Z,49.53
2023-01-22T23:22:55.639Z,57.92
2023-01-22T23:24:57.160Z,47.42
2023-01-22T23:26:58.731Z,66.95
2023-01-22T23:29:03.095Z,45.10
2023-01-22T23:31:09.587Z,55.75
2023-01-22T23:33:11.186Z,61.72
2023-01-22T23:35:12.835Z,44.92
2023-01-22T23:37:14.370Z,55.83
2023-01-22T23:39:18.590Z,33.97
2023-01-22T23:41:20.901Z,43.20
2023-01-22T23:43:22.463Z,49.13
2023-01-22T23:45:23.981Z,50.92
2023-01-22T23:47:27.286Z,63.03
2023-01-22T23:49:28.807Z,128.00
2023-01-22T23:51:30.748Z,75.50
2023-01-22T23:53:36.686Z,46.58
2023-01-22T23:55:38.227Z,42.22
2023-01-22T23:57:39.949Z,44.97
2023-01-22T23:59:41.510Z,40.78
